createdAt,value
2024-02-13T00:01:08.963Z,-3.14
2024-02-13T00:06:13.194Z,-3.21
2024-02-13T00:11:19.719Z,-3.27
2024-02-13T00:16:23.671Z,-3.31
2024-02-13T00:21:28.018Z,-3.39
2024-02-13T00:26:33.265Z,-3.45
2024-02-13T00:31:37.050Z,-3.42
2024-02-13T00:37:02.544Z,-3.46
2024-02-13T00:42:08.550Z,-3.48
2024-02-13T00:47:12.333Z,-3.53
2024-02-13T00:52:16.410Z,-3.55
2024-02-13T00:57:21.507Z,-3.61
2024-02-13T01:02:25.874Z,-3.62
2024-02-13T01:07:34.084Z,-3.73
2024-02-13T01:12:40.548Z,-3.93
2024-02-13T01:17:44.452Z,-3.94
2024-02-13T01:22:48.455Z,-3.91
2024-02-13T01:27:53.642Z,-3.95
2024-02-13T01:32:57.513Z,-4.03
2024-02-13T01:38:01.282Z,-4.14
2024-02-13T01:43:06.665Z,-4.13
2024-02-13T01:48:12.594Z,-4.01
2024-02-13T01:53:17.340Z,-3.95
2024-02-13T01:58:24.055Z,-3.84
2024-02-13T02:03:32.411Z,-3.86
2024-02-13T02:08:36.429Z,-3.85
2024-02-13T02:13:41.642Z,-3.76
2024-02-13T02:19:05.797Z,-3.81
2024-02-13T02:24:09.738Z,-3.80
2024-02-13T02:29:38.383Z,-3.83
2024-02-13T02:34:42.512Z,-3.78
2024-02-13T02:39:46.244Z,-3.90
2024-02-13T02:45:05.359Z,-3.95
2024-02-13T02:50:12.666Z,-3.85
2024-02-13T02:55:16.732Z,-4.01
2024-02-13T03:00:23.153Z,-4.20
2024-02-13T03:05:38.659Z,-4.29
2024-02-13T03:10:43.131Z,-4.45
2024-02-13T03:15:48.481Z,-4.47
2024-02-13T03:20:52.517Z,-4.48
2024-02-13T03:25:56.180Z,-4.43
2024-02-13T03:31:21.234Z,-4.38
2024-02-13T03:36:25.179Z,-4.30
2024-02-13T03:41:28.848Z,-4.36
2024-02-13T03:46:33.926Z,-4.36
2024-02-13T03:51:51.604Z,-4.39
2024-02-13T03:56:55.291Z,-4.31
2024-02-13T04:02:01.228Z,-4.34
2024-02-13T04:07:06.283Z,-4.54
2024-02-13T04:12:11.492Z,-4.54
2024-02-13T04:17:31.506Z,-4.47
2024-02-13T04:22:35.848Z,-4.49
2024-02-13T04:27:41.261Z,-4.53
2024-02-13T04:32:46.587Z,-4.54
2024-02-13T04:37:52.443Z,-4.48
2024-02-13T04:42:56.186Z,-4.69
2024-02-13T04:48:01.423Z,-4.87
2024-02-13T04:53:05.267Z,-4.74
2024-02-13T04:58:09.735Z,-4.79
2024-02-13T05:03:26.516Z,-4.77
2024-02-13T05:08:30.832Z,-4.80
2024-02-13T05:13:48.438Z,-4.81
2024-02-13T05:18:53.759Z,-4.72
2024-02-13T05:23:57.598Z,-4.55
2024-02-13T05:29:01.367Z,-4.41
2024-02-13T05:34:07.982Z,-4.69
2024-02-13T05:39:12.245Z,-4.60
2024-02-13T05:44:15.944Z,-4.50
2024-02-13T05:49:21.492Z,-3.96
2024-02-13T05:54:25.283Z,-3.72
2024-02-13T05:59:31.472Z,-3.39
2024-02-13T06:04:36.980Z,-3.06
2024-02-13T06:09:42.030Z,-2.78
2024-02-13T06:14:48.978Z,-2.27
2024-02-13T06:19:55.788Z,-1.92
2024-02-13T06:24:59.607Z,-2.03
2024-02-13T06:30:03.728Z,-1.95
2024-02-13T06:35:14.504Z,-2.25
2024-02-13T06:40:37.965Z,-2.36
2024-02-13T06:45:41.698Z,-1.75
2024-02-13T06:50:47.024Z,-1.52
2024-02-13T06:55:51.035Z,-1.45
2024-02-13T07:00:55.152Z,-0.96
2024-02-13T07:06:00.546Z,1.11
2024-02-13T07:11:07.669Z,2.76
2024-02-13T07:16:39.360Z,3.08
2024-02-13T07:21:46.260Z,5.75
2024-02-13T07:26:50.531Z,5.41
2024-02-13T07:31:56.005Z,4.81
2024-02-13T07:37:01.241Z,3.23
2024-02-13T07:42:05.415Z,1.66
2024-02-13T07:47:09.342Z,0.29
2024-02-13T07:52:14.610Z,-0.33
2024-02-13T07:57:18.500Z,-0.51
2024-02-13T08:02:23.842Z,-0.91
2024-02-13T08:07:29.744Z,-1.15
2024-02-13T08:12:34.262Z,-1.30
2024-02-13T08:17:38.370Z,-1.52
2024-02-13T08:22:43.534Z,-1.67
2024-02-13T08:27:47.341Z,-1.57
2024-02-13T08:32:51.184Z,-1.37
2024-02-13T08:37:58.340Z,-1.71
2024-02-13T08:43:02.166Z,-1.69
2024-02-13T08:48:09.997Z,-1.88
2024-02-13T08:53:15.697Z,-1.86
2024-02-13T08:58:19.616Z,-1.91
2024-02-13T09:03:24.078Z,-1.90
2024-02-13T09:08:29.383Z,-2.35
2024-02-13T09:13:33.103Z,-2.27
2024-02-13T09:18:37.176Z,-2.12
2024-02-13T09:23:45.141Z,-2.35
2024-02-13T09:28:49.316Z,-2.28
2024-02-13T09:33:53.295Z,-2.29
2024-02-13T09:39:00.164Z,-2.21
2024-02-13T09:44:04.125Z,-2.17
2024-02-13T09:49:10.297Z,-1.90
2024-02-13T09:54:31.198Z,-1.66
2024-02-13T09:59:37.496Z,-1.57
2024-02-13T10:04:42.892Z,-1.68
2024-02-13T10:09:50.918Z,-1.37
2024-02-13T10:15:00.635Z,-1.20
2024-02-13T10:20:05.504Z,-1.53
2024-02-13T10:25:32.428Z,-1.56
2024-02-13T10:30:36.524Z,-1.39
2024-02-13T10:35:40.749Z,-1.39
2024-02-13T10:40:48.562Z,-1.92
2024-02-13T10:45:54.473Z,-1.92
2024-02-13T10:51:03.531Z,-2.18
2024-02-13T10:56:11.867Z,-2.12
2024-02-13T11:01:23.128Z,-1.96
2024-02-13T11:06:28.573Z,-2.14
2024-02-13T11:11:34.155Z,-2.07
2024-02-13T11:16:38.401Z,-1.90
2024-02-13T11:22:02.273Z,-1.54
2024-02-13T11:27:30.362Z,-1.68
2024-02-13T11:32:56.268Z,-1.94
2024-02-13T11:38:02.741Z,-1.99
2024-02-13T11:43:22.403Z,-1.73
2024-02-13T11:48:31.531Z,-1.83
2024-02-13T11:53:39.041Z,-2.02
2024-02-13T11:58:44.629Z,-2.39
2024-02-13T12:03:50.560Z,-2.63
2024-02-13T12:08:57.438Z,-2.80
2024-02-13T12:14:04.608Z,-3.63
2024-02-13T12:19:09.960Z,-3.72
2024-02-13T12:24:13.865Z,-3.91
2024-02-13T12:29:20.743Z,-4.10
2024-02-13T12:34:27.130Z,-4.26
2024-02-13T12:39:32.199Z,-4.41
2024-02-13T12:49:57.359Z,-4.69
2024-02-13T12:55:01.358Z,-5.13
2024-02-13T13:00:17.699Z,-5.26
2024-02-13T13:05:21.600Z,-5.39
2024-02-13T13:10:43.028Z,-5.43
2024-02-13T13:15:50.889Z,-5.55
2024-02-13T13:20:57.761Z,-5.78
2024-02-13T13:26:02.876Z,-5.72
2024-02-13T13:31:15.184Z,-5.74
2024-02-13T13:36:20.142Z,-5.79
2024-02-13T13:41:25.917Z,-6.02
2024-02-13T13:46:33.186Z,-6.25
2024-02-13T13:51:40.701Z,-6.39
2024-02-13T13:56:44.750Z,-6.73
2024-02-13T14:01:51.845Z,-6.70
2024-02-13T14:06:56.856Z,-6.71
2024-02-13T14:12:02.390Z,-6.74
2024-02-13T14:17:08.032Z,-6.84
2024-02-13T14:22:13.570Z,-6.95
2024-02-13T14:27:17.294Z,-7.01
2024-02-13T14:32:23.030Z,-7.25
2024-02-13T14:37:27.348Z,-7.38
2024-02-13T14:42:30.990Z,-7.46
2024-02-13T14:47:36.355Z,-7.75
2024-02-13T14:52:41.518Z,-7.99
2024-02-13T14:58:00.189Z,-7.97
2024-02-13T15:03:13.401Z,-8.02
2024-02-13T15:08:19.002Z,-7.90
2024-02-13T15:13:22.993Z,-7.86
2024-02-13T15:18:29.321Z,-7.82
2024-02-13T15:23:33.183Z,-7.74
2024-02-13T15:28:37.236Z,-7.72
2024-02-13T15:33:43.208Z,-7.78
2024-02-13T15:39:04.599Z,-7.78
2024-02-13T15:44:25.939Z,-7.83
2024-02-13T15:49:31.762Z,-8.13
2024-02-13T15:54:37.127Z,-8.13
2024-02-13T15:59:42.858Z,-8.18
2024-02-13T16:04:48.626Z,-8.32
2024-02-13T16:09:52.773Z,-8.27
2024-02-13T16:14:56.823Z,-8.40
2024-02-13T16:20:02.390Z,-8.30
2024-02-13T16:25:13.713Z,-8.15
2024-02-13T16:30:20.163Z,-8.21
2024-02-13T16:35:26.181Z,-8.25
2024-02-13T16:40:30.338Z,-8.11
2024-02-13T16:45:34.182Z,-7.95
2024-02-13T16:50:39.831Z,-8.04
2024-02-13T16:55:45.756Z,-8.20
2024-02-13T17:00:53.291Z,-8.23
2024-02-13T17:06:01.278Z,-8.14
2024-02-13T17:11:08.068Z,-8.29
2024-02-13T17:16:12.089Z,-8.20
2024-02-13T17:21:18.013Z,-8.18
2024-02-13T17:26:22.025Z,-8.16
2024-02-13T17:31:26.135Z,-8.24
2024-02-13T17:36:31.863Z,-8.27
2024-02-13T17:41:36.057Z,-8.47
2024-02-13T17:46:40.084Z,-8.45
2024-02-13T17:52:00.241Z,-8.38
2024-02-13T17:57:04.438Z,-8.39
2024-02-13T18:02:09.052Z,-8.42
2024-02-13T18:07:15.492Z,-8.44
2024-02-13T18:12:19.354Z,-8.41
2024-02-13T18:17:25.758Z,-8.41
2024-02-13T18:22:31.007Z,-8.33
2024-02-13T18:27:34.656Z,-8.31
2024-02-13T18:37:57.577Z,-8.30
2024-02-13T18:43:01.368Z,-8.28
2024-02-13T18:53:27.804Z,-8.24
2024-02-13T18:58:37.375Z,-8.14
2024-02-13T19:03:41.201Z,-8.18
2024-02-13T19:08:47.147Z,-8.28
2024-02-13T19:13:51.023Z,-8.24
2024-02-13T19:18:55.344Z,-8.54
2024-02-13T19:24:00.883Z,-8.39
2024-02-13T19:29:06.022Z,-8.36
2024-02-13T19:34:10.023Z,-8.25
2024-02-13T19:39:16.193Z,-8.52
2024-02-13T19:44:20.672Z,-8.39
2024-02-13T19:49:37.940Z,-8.52
2024-02-13T19:55:03.430Z,-8.72
2024-02-13T20:00:27.372Z,-8.70
2024-02-13T20:05:54.425Z,-8.84
2024-02-13T20:11:17.870Z,-8.98
2024-02-13T20:16:22.561Z,-9.06
2024-02-13T20:21:30.466Z,-9.25
2024-02-13T20:26:35.708Z,-9.40
2024-02-13T20:31:39.387Z,-9.65
2024-02-13T20:36:43.359Z,-9.83
2024-02-13T20:41:49.199Z,-9.90
2024-02-13T20:46:53.213Z,-9.93
2024-02-13T20:51:57.103Z,-10.02
2024-02-13T20:57:02.713Z,-10.28
2024-02-13T21:02:06.982Z,-10.32
2024-02-13T21:07:10.717Z,-10.39
2024-02-13T21:12:15.940Z,-10.36
2024-02-13T21:17:20.186Z,-10.57
2024-02-13T21:22:41.095Z,-10.68
2024-02-13T21:27:46.149Z,-10.46
2024-02-13T21:32:50.048Z,-10.41
2024-02-13T21:37:54.120Z,-10.48
2024-02-13T21:42:59.259Z,-10.45
2024-02-13T21:48:03.796Z,-10.44
2024-02-13T21:53:07.547Z,-10.53
2024-02-13T21:58:13.096Z,-10.62
2024-02-13T22:03:17.172Z,-10.75
2024-02-13T22:08:21.120Z,-11.00
2024-02-13T22:13:29.859Z,-10.97
2024-02-13T22:18:33.961Z,-10.91
2024-02-13T22:23:37.858Z,-10.97
2024-02-13T22:28:43.269Z,-11.05
2024-02-13T22:33:49.953Z,-11.16
2024-02-13T22:38:54.796Z,-11.28
2024-02-13T22:44:01.080Z,-11.50
2024-02-13T22:49:05.080Z,-11.52
2024-02-13T22:54:08.895Z,-11.63
2024-02-13T22:59:14.510Z,-11.73
2024-02-13T23:04:18.970Z,-11.67
2024-02-13T23:09:23.012Z,-11.60
2024-02-13T23:14:37.353Z,-11.62
2024-02-13T23:19:42.782Z,-11.63
2024-02-13T23:24:46.533Z,-11.64
2024-02-13T23:29:52.129Z,-11.56
2024-02-13T23:34:56.489Z,-11.63
2024-02-13T23:39:59.776Z,-11.69
2024-02-13T23:45:05.215Z,-11.76
2024-02-13T23:50:10.837Z,-11.96
2024-02-13T23:55:16.175Z,-11.94
